Renfrew, Canada
Current Conditions -  °F | °C
As of 5:00 AM on Friday 28 Nov 2014 (Local Time) from CYWA Reporting Station
Light Snow Light Snow  
Wind Chill: 10°   Ceiling: 2200
Heat Index: 19°   Visibility: 9mi
Dew Point:   Wind: 7mph
Humidity: 58%   Direction: 330°NNW
Pressure: 30.11"   Gusts: NA
Location:  45.47°N, 76.68°W
Report Text: CYWA 281000Z AUTO 33006KT 9SM -SN OVC022 M07/M14 A3011 RMKSLP207
Loading
Personal Weather Stations






























Interactive Weather Map New forecast layout! Learn more

10-Day Weather Forecast

Advertisements
Track Severe Weather on mobile